sensor_id;sensor_type;location;lat;lon;timestamp;P1;durP1;ratioP1;P2;durP2;ratioP2
65871;SDS011;52653;50.080;21.992;2022-09-09T00:00:11;44.20;;;32.40;;
65871;SDS011;52653;50.080;21.992;2022-09-09T00:03:26;44.70;;;31.40;;
65871;SDS011;52653;50.080;21.992;2022-09-09T00:06:23;42.70;;;31.90;;
65871;SDS011;52653;50.080;21.992;2022-09-09T00:09:12;44.00;;;31.40;;
65871;SDS011;52653;50.080;21.992;2022-09-09T00:12:06;47.00;;;32.00;;
65871;SDS011;52653;50.080;21.992;2022-09-09T00:15:07;44.40;;;32.60;;
65871;SDS011;52653;50.080;21.992;2022-09-09T00:17:47;41.20;;;31.20;;
65871;SDS011;52653;50.080;21.992;2022-09-09T00:20:47;43.30;;;32.20;;
65871;SDS011;52653;50.080;21.992;2022-09-09T00:23:44;44.30;;;32.40;;
65871;SDS011;52653;50.080;21.992;2022-09-09T00:26:42;45.90;;;33.50;;
65871;SDS011;52653;50.080;21.992;2022-09-09T00:29:38;45.50;;;33.00;;
65871;SDS011;52653;50.080;21.992;2022-09-09T00:32:34;42.10;;;32.80;;
65871;SDS011;52653;50.080;21.992;2022-09-09T00:35:28;43.20;;;31.10;;
65871;SDS011;52653;50.080;21.992;2022-09-09T00:38:23;42.90;;;31.30;;
65871;SDS011;52653;50.080;21.992;2022-09-09T00:41:20;44.70;;;32.80;;
65871;SDS011;52653;50.080;21.992;2022-09-09T00:44:27;45.50;;;32.90;;
65871;SDS011;52653;50.080;21.992;2022-09-09T00:47:31;44.30;;;32.80;;
65871;SDS011;52653;50.080;21.992;2022-09-09T00:50:21;39.90;;;31.80;;
65871;SDS011;52653;50.080;21.992;2022-09-09T00:53:27;43.60;;;31.90;;
65871;SDS011;52653;50.080;21.992;2022-09-09T00:56:26;44.80;;;32.50;;
65871;SDS011;52653;50.080;21.992;2022-09-09T00:59:16;44.40;;;31.80;;
65871;SDS011;52653;50.080;21.992;2022-09-09T01:02:21;46.80;;;32.20;;
65871;SDS011;52653;50.080;21.992;2022-09-09T01:05:20;42.10;;;31.70;;
65871;SDS011;52653;50.080;21.992;2022-09-09T01:08:14;45.60;;;31.70;;
65871;SDS011;52653;50.080;21.992;2022-09-09T01:11:09;43.60;;;30.90;;
65871;SDS011;52653;50.080;21.992;2022-09-09T01:14:14;40.90;;;30.60;;
65871;SDS011;52653;50.080;21.992;2022-09-09T01:17:15;38.10;;;30.10;;
65871;SDS011;52653;50.080;21.992;2022-09-09T01:20:12;44.00;;;30.70;;
65871;SDS011;52653;50.080;21.992;2022-09-09T01:23:14;45.30;;;31.10;;
65871;SDS011;52653;50.080;21.992;2022-09-09T01:26:26;39.80;;;29.90;;
65871;SDS011;52653;50.080;21.992;2022-09-09T01:29:15;37.00;;;28.80;;
65871;SDS011;52653;50.080;21.992;2022-09-09T01:35:35;45.10;;;30.30;;
65871;SDS011;52653;50.080;21.992;2022-09-09T01:38:36;39.30;;;30.10;;
65871;SDS011;52653;50.080;21.992;2022-09-09T01:41:29;38.90;;;28.70;;
65871;SDS011;52653;50.080;21.992;2022-09-09T01:44:21;38.10;;;29.40;;
65871;SDS011;52653;50.080;21.992;2022-09-09T01:46:57;38.90;;;29.00;;
65871;SDS011;52653;50.080;21.992;2022-09-09T01:49:49;36.90;;;27.90;;
65871;SDS011;52653;50.080;21.992;2022-09-09T01:52:42;38.90;;;27.50;;
65871;SDS011;52653;50.080;21.992;2022-09-09T01:55:37;37.40;;;28.30;;
65871;SDS011;52653;50.080;21.992;2022-09-09T01:58:31;38.90;;;28.80;;
65871;SDS011;52653;50.080;21.992;2022-09-09T02:01:15;37.80;;;27.50;;
65871;SDS011;52653;50.080;21.992;2022-09-09T02:04:18;37.90;;;27.30;;
65871;SDS011;52653;50.080;21.992;2022-09-09T02:07:14;37.90;;;27.70;;
65871;SDS011;52653;50.080;21.992;2022-09-09T02:10:00;37.70;;;27.40;;
65871;SDS011;52653;50.080;21.992;2022-09-09T02:13:01;38.30;;;27.20;;
65871;SDS011;52653;50.080;21.992;2022-09-09T02:15:45;39.60;;;27.40;;
65871;SDS011;52653;50.080;21.992;2022-09-09T02:18:44;37.60;;;26.40;;
65871;SDS011;52653;50.080;21.992;2022-09-09T02:21:38;35.00;;;25.00;;
65871;SDS011;52653;50.080;21.992;2022-09-09T02:24:33;37.70;;;27.60;;
65871;SDS011;52653;50.080;21.992;2022-09-09T02:27:28;33.10;;;24.90;;
65871;SDS011;52653;50.080;21.992;2022-09-09T02:30:20;36.30;;;25.20;;
65871;SDS011;52653;50.080;21.992;2022-09-09T02:33:13;33.70;;;24.70;;
65871;SDS011;52653;50.080;21.992;2022-09-09T02:36:06;35.00;;;24.50;;
65871;SDS011;52653;50.080;21.992;2022-09-09T02:38:46;35.20;;;25.00;;
65871;SDS011;52653;50.080;21.992;2022-09-09T02:41:42;33.80;;;25.30;;
65871;SDS011;52653;50.080;21.992;2022-09-09T02:44:34;34.50;;;24.90;;
65871;SDS011;52653;50.080;21.992;2022-09-09T02:47:29;32.00;;;24.50;;
65871;SDS011;52653;50.080;21.992;2022-09-09T02:50:25;30.60;;;24.10;;
65871;SDS011;52653;50.080;21.992;2022-09-09T02:53:24;33.50;;;24.70;;
65871;SDS011;52653;50.080;21.992;2022-09-09T02:56:23;30.70;;;22.90;;
65871;SDS011;52653;50.080;21.992;2022-09-09T02:59:22;33.70;;;24.00;;
65871;SDS011;52653;50.080;21.992;2022-09-09T03:02:05;32.30;;;23.80;;
65871;SDS011;52653;50.080;21.992;2022-09-09T03:04:59;29.90;;;23.20;;
65871;SDS011;52653;50.080;21.992;2022-09-09T03:07:51;32.50;;;23.80;;
65871;SDS011;52653;50.080;21.992;2022-09-09T03:10:43;35.50;;;26.10;;
65871;SDS011;52653;50.080;21.992;2022-09-09T03:13:35;35.60;;;25.10;;
65871;SDS011;52653;50.080;21.992;2022-09-09T03:16:28;31.30;;;25.70;;
65871;SDS011;52653;50.080;21.992;2022-09-09T03:19:20;33.60;;;24.40;;
65871;SDS011;52653;50.080;21.992;2022-09-09T03:22:12;32.40;;;23.30;;
65871;SDS011;52653;50.080;21.992;2022-09-09T03:25:04;34.10;;;24.70;;
65871;SDS011;52653;50.080;21.992;2022-09-09T03:27:46;31.20;;;23.90;;
65871;SDS011;52653;50.080;21.992;2022-09-09T03:30:38;33.20;;;23.60;;
65871;SDS011;52653;50.080;21.992;2022-09-09T03:33:30;32.20;;;23.00;;
65871;SDS011;52653;50.080;21.992;2022-09-09T03:36:23;32.40;;;23.70;;
65871;SDS011;52653;50.080;21.992;2022-09-09T03:39:17;31.20;;;23.90;;
65871;SDS011;52653;50.080;21.992;2022-09-09T03:42:09;29.40;;;23.60;;
65871;SDS011;52653;50.080;21.992;2022-09-09T03:45:08;32.10;;;24.20;;
65871;SDS011;52653;50.080;21.992;2022-09-09T03:47:51;29.80;;;22.70;;
65871;SDS011;52653;50.080;21.992;2022-09-09T03:50:45;28.20;;;22.60;;
65871;SDS011;52653;50.080;21.992;2022-09-09T03:53:38;31.70;;;23.10;;
65871;SDS011;52653;50.080;21.992;2022-09-09T03:56:30;31.20;;;23.00;;
65871;SDS011;52653;50.080;21.992;2022-09-09T03:59:22;28.70;;;23.40;;
65871;SDS011;52653;50.080;21.992;2022-09-09T04:02:13;29.80;;;22.60;;
65871;SDS011;52653;50.080;21.992;2022-09-09T04:05:06;28.20;;;22.50;;
65871;SDS011;52653;50.080;21.992;2022-09-09T04:07:59;28.40;;;22.30;;
65871;SDS011;52653;50.080;21.992;2022-09-09T04:10:51;30.40;;;22.40;;
65871;SDS011;52653;50.080;21.992;2022-09-09T04:13:29;28.00;;;23.30;;
65871;SDS011;52653;50.080;21.992;2022-09-09T04:16:22;30.00;;;22.10;;
65871;SDS011;52653;50.080;21.992;2022-09-09T04:18:57;31.30;;;23.30;;
65871;SDS011;52653;50.080;21.992;2022-09-09T04:21:50;28.70;;;23.50;;
65871;SDS011;52653;50.080;21.992;2022-09-09T04:24:42;30.20;;;22.40;;
65871;SDS011;52653;50.080;21.992;2022-09-09T04:27:37;28.70;;;23.10;;
65871;SDS011;52653;50.080;21.992;2022-09-09T04:30:09;28.60;;;23.40;;
65871;SDS011;52653;50.080;21.992;2022-09-09T04:32:56;32.30;;;23.00;;
65871;SDS011;52653;50.080;21.992;2022-09-09T04:35:48;32.50;;;24.10;;
65871;SDS011;52653;50.080;21.992;2022-09-09T04:38:26;30.90;;;23.50;;
65871;SDS011;52653;50.080;21.992;2022-09-09T04:41:10;30.20;;;24.80;;
65871;SDS011;52653;50.080;21.992;2022-09-09T04:44:03;32.50;;;23.40;;
65871;SDS011;52653;50.080;21.992;2022-09-09T04:46:35;30.40;;;22.70;;
65871;SDS011;52653;50.080;21.992;2022-09-09T04:49:11;30.20;;;23.40;;
65871;SDS011;52653;50.080;21.992;2022-09-09T04:51:46;29.80;;;23.40;;
65871;SDS011;52653;50.080;21.992;2022-09-09T04:54:20;32.10;;;23.60;;
65871;SDS011;52653;50.080;21.992;2022-09-09T04:57:12;31.00;;;24.00;;
65871;SDS011;52653;50.080;21.992;2022-09-09T05:00:07;31.10;;;21.50;;
65871;SDS011;52653;50.080;21.992;2022-09-09T05:03:04;31.00;;;23.60;;
65871;SDS011;52653;50.080;21.992;2022-09-09T05:05:48;28.80;;;22.90;;
65871;SDS011;52653;50.080;21.992;2022-09-09T05:08:41;29.90;;;22.80;;
65871;SDS011;52653;50.080;21.992;2022-09-09T05:11:24;29.90;;;22.40;;
65871;SDS011;52653;50.080;21.992;2022-09-09T05:14:17;30.20;;;23.20;;
65871;SDS011;52653;50.080;21.992;2022-09-09T05:17:09;30.90;;;22.70;;
65871;SDS011;52653;50.080;21.992;2022-09-09T05:19:52;29.10;;;22.90;;
65871;SDS011;52653;50.080;21.992;2022-09-09T05:22:24;31.20;;;23.90;;
65871;SDS011;52653;50.080;21.992;2022-09-09T05:24:56;31.60;;;24.70;;
65871;SDS011;52653;50.080;21.992;2022-09-09T05:27:28;38.30;;;25.90;;
65871;SDS011;52653;50.080;21.992;2022-09-09T05:30:01;30.40;;;23.10;;
65871;SDS011;52653;50.080;21.992;2022-09-09T05:32:35;29.10;;;23.50;;
65871;SDS011;52653;50.080;21.992;2022-09-09T05:35:07;29.00;;;22.80;;
65871;SDS011;52653;50.080;21.992;2022-09-09T05:37:40;28.20;;;22.10;;
65871;SDS011;52653;50.080;21.992;2022-09-09T05:40:12;28.30;;;22.20;;
65871;SDS011;52653;50.080;21.992;2022-09-09T05:42:44;28.00;;;23.10;;
65871;SDS011;52653;50.080;21.992;2022-09-09T05:45:18;30.70;;;23.10;;
65871;SDS011;52653;50.080;21.992;2022-09-09T05:47:52;27.90;;;22.30;;
65871;SDS011;52653;50.080;21.992;2022-09-09T05:50:24;29.50;;;21.40;;
65871;SDS011;52653;50.080;21.992;2022-09-09T05:53:02;29.00;;;23.10;;
65871;SDS011;52653;50.080;21.992;2022-09-09T05:55:34;28.30;;;22.90;;
65871;SDS011;52653;50.080;21.992;2022-09-09T05:58:06;32.40;;;24.90;;
65871;SDS011;52653;50.080;21.992;2022-09-09T06:00:39;30.40;;;24.60;;
65871;SDS011;52653;50.080;21.992;2022-09-09T06:03:11;31.80;;;24.40;;
65871;SDS011;52653;50.080;21.992;2022-09-09T06:06:04;27.90;;;23.30;;
65871;SDS011;52653;50.080;21.992;2022-09-09T06:08:49;27.80;;;23.00;;
65871;SDS011;52653;50.080;21.992;2022-09-09T06:11:23;29.90;;;24.30;;
65871;SDS011;52653;50.080;21.992;2022-09-09T06:13:56;33.30;;;23.20;;
65871;SDS011;52653;50.080;21.992;2022-09-09T06:16:29;28.00;;;23.20;;
65871;SDS011;52653;50.080;21.992;2022-09-09T06:19:05;28.50;;;22.60;;
65871;SDS011;52653;50.080;21.992;2022-09-09T06:21:37;29.90;;;23.80;;
65871;SDS011;52653;50.080;21.992;2022-09-09T06:24:10;29.30;;;22.50;;
65871;SDS011;52653;50.080;21.992;2022-09-09T06:26:46;30.20;;;22.90;;
65871;SDS011;52653;50.080;21.992;2022-09-09T06:29:21;29.70;;;23.00;;
65871;SDS011;52653;50.080;21.992;2022-09-09T06:31:53;30.70;;;23.10;;
65871;SDS011;52653;50.080;21.992;2022-09-09T06:34:28;29.10;;;22.70;;
65871;SDS011;52653;50.080;21.992;2022-09-09T06:37:00;30.90;;;25.10;;
65871;SDS011;52653;50.080;21.992;2022-09-09T06:39:46;30.30;;;24.40;;
65871;SDS011;52653;50.080;21.992;2022-09-09T06:42:18;33.50;;;26.60;;
65871;SDS011;52653;50.080;21.992;2022-09-09T06:44:50;33.40;;;25.10;;
65871;SDS011;52653;50.080;21.992;2022-09-09T06:47:48;32.10;;;24.40;;
65871;SDS011;52653;50.080;21.992;2022-09-09T06:50:21;29.30;;;23.30;;
65871;SDS011;52653;50.080;21.992;2022-09-09T06:52:53;29.40;;;23.70;;
65871;SDS011;52653;50.080;21.992;2022-09-09T06:55:28;25.70;;;21.10;;
65871;SDS011;52653;50.080;21.992;2022-09-09T06:58:00;23.50;;;18.80;;
65871;SDS011;52653;50.080;21.992;2022-09-09T07:00:32;16.60;;;14.40;;
65871;SDS011;52653;50.080;21.992;2022-09-09T07:03:15;13.60;;;11.20;;
65871;SDS011;52653;50.080;21.992;2022-09-09T07:05:55;12.60;;;11.00;;
65871;SDS011;52653;50.080;21.992;2022-09-09T07:11:03;11.80;;;10.10;;
65871;SDS011;52653;50.080;21.992;2022-09-09T07:13:41;11.50;;;9.80;;
65871;SDS011;52653;50.080;21.992;2022-09-09T07:16:23;11.20;;;10.00;;
65871;SDS011;52653;50.080;21.992;2022-09-09T07:18:59;10.80;;;9.20;;
65871;SDS011;52653;50.080;21.992;2022-09-09T07:21:32;11.20;;;9.50;;
65871;SDS011;52653;50.080;21.992;2022-09-09T07:24:08;11.00;;;9.30;;
65871;SDS011;52653;50.080;21.992;2022-09-09T07:26:45;11.00;;;9.40;;
65871;SDS011;52653;50.080;21.992;2022-09-09T07:29:17;12.00;;;8.80;;
65871;SDS011;52653;50.080;21.992;2022-09-09T07:31:52;10.30;;;8.90;;
65871;SDS011;52653;50.080;21.992;2022-09-09T07:34:28;11.40;;;9.20;;
65871;SDS011;52653;50.080;21.992;2022-09-09T07:37:00;10.00;;;8.70;;
65871;SDS011;52653;50.080;21.992;2022-09-09T07:39:34;9.60;;;8.40;;
65871;SDS011;52653;50.080;21.992;2022-09-09T07:42:07;11.40;;;8.50;;
65871;SDS011;52653;50.080;21.992;2022-09-09T07:44:43;10.90;;;8.80;;
65871;SDS011;52653;50.080;21.992;2022-09-09T07:47:16;9.90;;;7.90;;
65871;SDS011;52653;50.080;21.992;2022-09-09T07:49:50;9.20;;;7.90;;
65871;SDS011;52653;50.080;21.992;2022-09-09T07:52:26;10.50;;;7.60;;
65871;SDS011;52653;50.080;21.992;2022-09-09T07:55:01;9.20;;;7.80;;
65871;SDS011;52653;50.080;21.992;2022-09-09T07:57:33;10.40;;;8.00;;
65871;SDS011;52653;50.080;21.992;2022-09-09T08:00:08;9.30;;;8.00;;
65871;SDS011;52653;50.080;21.992;2022-09-09T08:02:42;9.10;;;8.10;;
65871;SDS011;52653;50.080;21.992;2022-09-09T08:05:15;9.60;;;7.20;;
65871;SDS011;52653;50.080;21.992;2022-09-09T08:07:47;8.70;;;7.00;;
65871;SDS011;52653;50.080;21.992;2022-09-09T08:10:20;9.00;;;6.50;;
65871;SDS011;52653;50.080;21.992;2022-09-09T08:12:55;8.00;;;7.00;;
65871;SDS011;52653;50.080;21.992;2022-09-09T08:15:47;7.20;;;6.20;;
65871;SDS011;52653;50.080;21.992;2022-09-09T08:18:20;8.00;;;6.80;;
65871;SDS011;52653;50.080;21.992;2022-09-09T08:20:53;9.40;;;7.00;;
65871;SDS011;52653;50.080;21.992;2022-09-09T08:23:25;9.00;;;6.70;;
65871;SDS011;52653;50.080;21.992;2022-09-09T08:26:03;7.80;;;6.70;;
65871;SDS011;52653;50.080;21.992;2022-09-09T08:28:38;9.60;;;7.60;;
65871;SDS011;52653;50.080;21.992;2022-09-09T08:31:13;9.40;;;7.10;;
65871;SDS011;52653;50.080;21.992;2022-09-09T08:33:47;7.40;;;6.10;;
65871;SDS011;52653;50.080;21.992;2022-09-09T08:36:22;7.90;;;6.30;;
65871;SDS011;52653;50.080;21.992;2022-09-09T08:38:56;7.90;;;7.00;;
65871;SDS011;52653;50.080;21.992;2022-09-09T08:41:35;8.60;;;6.80;;
65871;SDS011;52653;50.080;21.992;2022-09-09T08:44:37;9.80;;;7.10;;
65871;SDS011;52653;50.080;21.992;2022-09-09T08:47:21;8.10;;;7.30;;
65871;SDS011;52653;50.080;21.992;2022-09-09T08:50:07;9.40;;;8.10;;
65871;SDS011;52653;50.080;21.992;2022-09-09T08:52:57;8.90;;;7.60;;
65871;SDS011;52653;50.080;21.992;2022-09-09T08:55:39;7.40;;;6.30;;
65871;SDS011;52653;50.080;21.992;2022-09-09T08:58:16;7.20;;;6.30;;
65871;SDS011;52653;50.080;21.992;2022-09-09T09:00:54;8.10;;;7.20;;
65871;SDS011;52653;50.080;21.992;2022-09-09T09:04:02;13.10;;;7.10;;
65871;SDS011;52653;50.080;21.992;2022-09-09T09:06:45;8.40;;;6.60;;
65871;SDS011;52653;50.080;21.992;2022-09-09T09:09:30;7.10;;;6.40;;
65871;SDS011;52653;50.080;21.992;2022-09-09T09:12:14;8.40;;;7.60;;
65871;SDS011;52653;50.080;21.992;2022-09-09T09:14:50;8.50;;;7.20;;
65871;SDS011;52653;50.080;21.992;2022-09-09T09:17:24;8.30;;;6.70;;
65871;SDS011;52653;50.080;21.992;2022-09-09T09:20:01;8.30;;;7.50;;
65871;SDS011;52653;50.080;21.992;2022-09-09T09:22:41;8.50;;;7.20;;
65871;SDS011;52653;50.080;21.992;2022-09-09T09:25:20;8.20;;;7.10;;
65871;SDS011;52653;50.080;21.992;2022-09-09T09:27:57;8.90;;;7.40;;
65871;SDS011;52653;50.080;21.992;2022-09-09T09:30:31;8.50;;;7.30;;
65871;SDS011;52653;50.080;21.992;2022-09-09T09:33:11;8.10;;;7.00;;
65871;SDS011;52653;50.080;21.992;2022-09-09T09:35:49;7.80;;;7.00;;
65871;SDS011;52653;50.080;21.992;2022-09-09T09:38:26;8.60;;;7.80;;
65871;SDS011;52653;50.080;21.992;2022-09-09T09:41:40;9.00;;;7.70;;
65871;SDS011;52653;50.080;21.992;2022-09-09T09:44:26;7.80;;;6.90;;
65871;SDS011;52653;50.080;21.992;2022-09-09T09:47:12;8.30;;;7.50;;
65871;SDS011;52653;50.080;21.992;2022-09-09T09:49:53;8.50;;;7.40;;
65871;SDS011;52653;50.080;21.992;2022-09-09T09:52:54;8.50;;;7.50;;
65871;SDS011;52653;50.080;21.992;2022-09-09T09:55:27;7.50;;;6.70;;
65871;SDS011;52653;50.080;21.992;2022-09-09T09:58:04;7.30;;;6.50;;
65871;SDS011;52653;50.080;21.992;2022-09-09T10:00:57;8.00;;;7.30;;
65871;SDS011;52653;50.080;21.992;2022-09-09T10:03:31;6.80;;;6.10;;
65871;SDS011;52653;50.080;21.992;2022-09-09T10:06:08;8.30;;;6.70;;
65871;SDS011;52653;50.080;21.992;2022-09-09T10:08:49;9.00;;;7.10;;
65871;SDS011;52653;50.080;21.992;2022-09-09T10:11:40;6.00;;;5.40;;
65871;SDS011;52653;50.080;21.992;2022-09-09T10:14:21;6.10;;;4.90;;
65871;SDS011;52653;50.080;21.992;2022-09-09T10:17:17;5.80;;;4.80;;
65871;SDS011;52653;50.080;21.992;2022-09-09T10:20:19;6.90;;;4.50;;
65871;SDS011;52653;50.080;21.992;2022-09-09T10:23:05;5.10;;;4.50;;
65871;SDS011;52653;50.080;21.992;2022-09-09T10:26:12;6.20;;;4.40;;
65871;SDS011;52653;50.080;21.992;2022-09-09T10:29:28;6.00;;;4.40;;
65871;SDS011;52653;50.080;21.992;2022-09-09T10:32:13;6.30;;;5.20;;
65871;SDS011;52653;50.080;21.992;2022-09-09T10:35:09;5.80;;;4.70;;
65871;SDS011;52653;50.080;21.992;2022-09-09T10:38:00;6.30;;;5.10;;
65871;SDS011;52653;50.080;21.992;2022-09-09T10:47:07;5.00;;;4.20;;
65871;SDS011;52653;50.080;21.992;2022-09-09T10:50:05;5.30;;;4.20;;
65871;SDS011;52653;50.080;21.992;2022-09-09T10:52:58;5.00;;;3.70;;
65871;SDS011;52653;50.080;21.992;2022-09-09T10:55:42;5.40;;;3.80;;
65871;SDS011;52653;50.080;21.992;2022-09-09T10:58:19;5.70;;;3.90;;
65871;SDS011;52653;50.080;21.992;2022-09-09T11:01:17;4.90;;;4.00;;
65871;SDS011;52653;50.080;21.992;2022-09-09T11:04:15;5.50;;;4.10;;
65871;SDS011;52653;50.080;21.992;2022-09-09T11:06:52;4.70;;;4.20;;
65871;SDS011;52653;50.080;21.992;2022-09-09T11:09:26;4.70;;;4.20;;
65871;SDS011;52653;50.080;21.992;2022-09-09T11:12:23;7.10;;;4.60;;
65871;SDS011;52653;50.080;21.992;2022-09-09T11:14:57;5.20;;;4.40;;
65871;SDS011;52653;50.080;21.992;2022-09-09T11:17:35;6.00;;;5.10;;
65871;SDS011;52653;50.080;21.992;2022-09-09T11:20:32;7.40;;;4.90;;
65871;SDS011;52653;50.080;21.992;2022-09-09T11:23:27;4.90;;;4.40;;
65871;SDS011;52653;50.080;21.992;2022-09-09T11:26:31;6.30;;;4.50;;
65871;SDS011;52653;50.080;21.992;2022-09-09T11:29:44;5.30;;;4.40;;
65871;SDS011;52653;50.080;21.992;2022-09-09T11:35:35;5.60;;;4.00;;
65871;SDS011;52653;50.080;21.992;2022-09-09T11:38:38;9.90;;;4.30;;
65871;SDS011;52653;50.080;21.992;2022-09-09T11:41:15;13.70;;;5.10;;
65871;SDS011;52653;50.080;21.992;2022-09-09T11:44:11;5.00;;;3.90;;
65871;SDS011;52653;50.080;21.992;2022-09-09T11:46:59;4.60;;;3.80;;
65871;SDS011;52653;50.080;21.992;2022-09-09T11:49:40;6.30;;;5.00;;
65871;SDS011;52653;50.080;21.992;2022-09-09T11:52:18;5.70;;;5.10;;
65871;SDS011;52653;50.080;21.992;2022-09-09T11:54:55;7.10;;;5.10;;
65871;SDS011;52653;50.080;21.992;2022-09-09T11:57:32;5.60;;;5.00;;
65871;SDS011;52653;50.080;21.992;2022-09-09T12:00:27;7.40;;;5.00;;
65871;SDS011;52653;50.080;21.992;2022-09-09T12:03:02;6.50;;;4.80;;
65871;SDS011;52653;50.080;21.992;2022-09-09T12:05:45;7.90;;;5.20;;
65871;SDS011;52653;50.080;21.992;2022-09-09T12:08:22;5.40;;;4.80;;
65871;SDS011;52653;50.080;21.992;2022-09-09T12:10:58;6.70;;;4.80;;
65871;SDS011;52653;50.080;21.992;2022-09-09T12:13:32;6.40;;;4.70;;
65871;SDS011;52653;50.080;21.992;2022-09-09T12:16:32;5.30;;;4.40;;
65871;SDS011;52653;50.080;21.992;2022-09-09T12:19:12;5.00;;;4.30;;
65871;SDS011;52653;50.080;21.992;2022-09-09T12:21:57;5.60;;;4.40;;
65871;SDS011;52653;50.080;21.992;2022-09-09T12:24:56;6.00;;;4.20;;
65871;SDS011;52653;50.080;21.992;2022-09-09T12:28:01;8.50;;;4.50;;
65871;SDS011;52653;50.080;21.992;2022-09-09T12:30:41;6.20;;;4.30;;
65871;SDS011;52653;50.080;21.992;2022-09-09T12:33:40;5.10;;;4.50;;
65871;SDS011;52653;50.080;21.992;2022-09-09T12:36:18;7.70;;;5.00;;
65871;SDS011;52653;50.080;21.992;2022-09-09T12:38:52;6.40;;;4.60;;
65871;SDS011;52653;50.080;21.992;2022-09-09T12:41:26;6.40;;;4.70;;
65871;SDS011;52653;50.080;21.992;2022-09-09T12:44:19;5.50;;;4.70;;
65871;SDS011;52653;50.080;21.992;2022-09-09T12:46:51;5.00;;;4.40;;
65871;SDS011;52653;50.080;21.992;2022-09-09T12:49:28;5.30;;;4.30;;
65871;SDS011;52653;50.080;21.992;2022-09-09T12:52:04;6.30;;;4.50;;
65871;SDS011;52653;50.080;21.992;2022-09-09T12:54:44;16.00;;;4.70;;
65871;SDS011;52653;50.080;21.992;2022-09-09T12:57:38;6.80;;;4.30;;
65871;SDS011;52653;50.080;21.992;2022-09-09T13:00:14;7.20;;;4.20;;
65871;SDS011;52653;50.080;21.992;2022-09-09T13:02:51;6.00;;;5.00;;
65871;SDS011;52653;50.080;21.992;2022-09-09T13:05:25;5.60;;;4.70;;
65871;SDS011;52653;50.080;21.992;2022-09-09T13:08:02;6.00;;;4.30;;
65871;SDS011;52653;50.080;21.992;2022-09-09T13:10:57;5.70;;;4.30;;
65871;SDS011;52653;50.080;21.992;2022-09-09T13:13:43;6.00;;;4.40;;
65871;SDS011;52653;50.080;21.992;2022-09-09T13:16:25;7.20;;;4.70;;
65871;SDS011;52653;50.080;21.992;2022-09-09T13:19:07;7.00;;;4.70;;
65871;SDS011;52653;50.080;21.992;2022-09-09T13:21:44;6.70;;;4.70;;
65871;SDS011;52653;50.080;21.992;2022-09-09T13:24:29;5.90;;;4.80;;
65871;SDS011;52653;50.080;21.992;2022-09-09T13:27:03;6.00;;;4.80;;
65871;SDS011;52653;50.080;21.992;2022-09-09T13:29:52;6.30;;;4.50;;
65871;SDS011;52653;50.080;21.992;2022-09-09T13:32:26;6.30;;;5.10;;
65871;SDS011;52653;50.080;21.992;2022-09-09T13:35:00;5.50;;;4.70;;
65871;SDS011;52653;50.080;21.992;2022-09-09T13:37:33;5.70;;;4.40;;
65871;SDS011;52653;50.080;21.992;2022-09-09T13:40:17;5.50;;;4.60;;
65871;SDS011;52653;50.080;21.992;2022-09-09T13:42:52;5.20;;;4.40;;
65871;SDS011;52653;50.080;21.992;2022-09-09T13:45:27;6.70;;;4.80;;
65871;SDS011;52653;50.080;21.992;2022-09-09T13:47:59;5.50;;;4.70;;
65871;SDS011;52653;50.080;21.992;2022-09-09T13:50:44;6.30;;;4.90;;
65871;SDS011;52653;50.080;21.992;2022-09-09T13:53:26;5.50;;;4.90;;
65871;SDS011;52653;50.080;21.992;2022-09-09T13:55:59;6.00;;;5.40;;
65871;SDS011;52653;50.080;21.992;2022-09-09T13:58:31;6.90;;;6.20;;
65871;SDS011;52653;50.080;21.992;2022-09-09T14:01:04;9.00;;;6.00;;
65871;SDS011;52653;50.080;21.992;2022-09-09T14:03:35;7.20;;;5.70;;
65871;SDS011;52653;50.080;21.992;2022-09-09T14:06:08;7.60;;;5.40;;
65871;SDS011;52653;50.080;21.992;2022-09-09T14:08:40;6.10;;;5.20;;
65871;SDS011;52653;50.080;21.992;2022-09-09T14:11:12;6.40;;;5.80;;
65871;SDS011;52653;50.080;21.992;2022-09-09T14:13:44;10.70;;;7.30;;
65871;SDS011;52653;50.080;21.992;2022-09-09T14:16:19;24.10;;;9.40;;
65871;SDS011;52653;50.080;21.992;2022-09-09T14:18:54;21.60;;;9.40;;
65871;SDS011;52653;50.080;21.992;2022-09-09T14:21:28;8.30;;;7.40;;
65871;SDS011;52653;50.080;21.992;2022-09-09T14:24:01;9.80;;;4.80;;
65871;SDS011;52653;50.080;21.992;2022-09-09T14:26:34;14.80;;;6.40;;
65871;SDS011;52653;50.080;21.992;2022-09-09T14:29:08;8.00;;;7.20;;
65871;SDS011;52653;50.080;21.992;2022-09-09T14:31:40;8.20;;;6.90;;
65871;SDS011;52653;50.080;21.992;2022-09-09T14:34:12;8.80;;;7.90;;
65871;SDS011;52653;50.080;21.992;2022-09-09T14:36:44;8.70;;;7.40;;
65871;SDS011;52653;50.080;21.992;2022-09-09T14:39:16;7.60;;;6.10;;
65871;SDS011;52653;50.080;21.992;2022-09-09T14:41:51;8.20;;;6.40;;
65871;SDS011;52653;50.080;21.992;2022-09-09T14:44:22;11.10;;;6.80;;
65871;SDS011;52653;50.080;21.992;2022-09-09T14:46:54;8.40;;;5.90;;
65871;SDS011;52653;50.080;21.992;2022-09-09T14:49:30;6.90;;;6.00;;
65871;SDS011;52653;50.080;21.992;2022-09-09T14:52:04;9.00;;;5.80;;
65871;SDS011;52653;50.080;21.992;2022-09-09T14:54:38;94.50;;;13.40;;
65871;SDS011;52653;50.080;21.992;2022-09-09T14:57:10;8.50;;;6.10;;
65871;SDS011;52653;50.080;21.992;2022-09-09T14:59:42;6.40;;;5.70;;
65871;SDS011;52653;50.080;21.992;2022-09-09T15:02:14;7.40;;;6.30;;
65871;SDS011;52653;50.080;21.992;2022-09-09T15:04:49;12.20;;;6.70;;
65871;SDS011;52653;50.080;21.992;2022-09-09T15:07:21;8.00;;;5.80;;
65871;SDS011;52653;50.080;21.992;2022-09-09T15:09:53;8.60;;;5.70;;
65871;SDS011;52653;50.080;21.992;2022-09-09T15:12:25;11.50;;;6.60;;
65871;SDS011;52653;50.080;21.992;2022-09-09T15:14:58;8.10;;;5.60;;
65871;SDS011;52653;50.080;21.992;2022-09-09T15:17:30;7.10;;;6.20;;
65871;SDS011;52653;50.080;21.992;2022-09-09T15:20:02;8.30;;;7.30;;
65871;SDS011;52653;50.080;21.992;2022-09-09T15:22:35;12.50;;;10.20;;
65871;SDS011;52653;50.080;21.992;2022-09-09T15:25:07;13.80;;;12.10;;
65871;SDS011;52653;50.080;21.992;2022-09-09T15:27:41;14.20;;;12.40;;
65871;SDS011;52653;50.080;21.992;2022-09-09T15:30:14;15.80;;;12.30;;
65871;SDS011;52653;50.080;21.992;2022-09-09T15:32:52;13.50;;;11.00;;
65871;SDS011;52653;50.080;21.992;2022-09-09T15:35:24;13.60;;;10.80;;
65871;SDS011;52653;50.080;21.992;2022-09-09T15:37:56;14.70;;;11.40;;
65871;SDS011;52653;50.080;21.992;2022-09-09T15:40:31;15.60;;;12.40;;
65871;SDS011;52653;50.080;21.992;2022-09-09T15:43:04;15.20;;;13.60;;
65871;SDS011;52653;50.080;21.992;2022-09-09T15:45:38;17.80;;;14.40;;
65871;SDS011;52653;50.080;21.992;2022-09-09T15:48:13;17.20;;;14.70;;
65871;SDS011;52653;50.080;21.992;2022-09-09T15:50:47;16.50;;;14.80;;
65871;SDS011;52653;50.080;21.992;2022-09-09T15:53:56;16.50;;;14.20;;
65871;SDS011;52653;50.080;21.992;2022-09-09T15:56:29;16.70;;;13.80;;
65871;SDS011;52653;50.080;21.992;2022-09-09T15:59:12;16.10;;;14.10;;
65871;SDS011;52653;50.080;21.992;2022-09-09T16:01:45;18.00;;;15.50;;
65871;SDS011;52653;50.080;21.992;2022-09-09T16:04:21;21.50;;;16.50;;
65871;SDS011;52653;50.080;21.992;2022-09-09T16:06:54;18.30;;;15.30;;
65871;SDS011;52653;50.080;21.992;2022-09-09T16:09:31;20.00;;;14.80;;